Time;durP1;ratioP1;P1;durP2;ratioP2;P2;SDS_P1;SDS_P2;PMS_P1;PMS_P2;Temp;Humidity;BMP_temperature;BMP_pressure;BME280_temperature;BME280_humidity;BME280_pressure;Samples;Min_cycle;Max_cycle;Signal;HPM_P1;HPM_P2
2024/03/24 00:01:59;;;;;;;17.90;9.77;;;;;;;7.83;56.99;99213.16;5040452;27;96636;-85
2024/03/24 00:04:25;;;;;;;19.25;8.82;;;;;;;7.83;56.79;99215.75;5023538;27;96845;-85
2024/03/24 00:06:50;;;;;;;19.50;9.68;;;;;;;7.78;57.03;99214.25;5039595;27;99947;-85
2024/03/24 00:09:16;;;;;;;18.25;9.75;;;;;;;7.56;57.22;99180.28;5039854;27;99930;-85
2024/03/24 00:11:42;;;;;;;21.00;9.50;;;;;;;7.71;57.52;99203.19;5040138;27;96548;-85
2024/03/24 00:14:08;;;;;;;23.90;9.45;;;;;;;7.62;58.05;99203.53;5023575;27;97029;-86
2024/03/24 00:16:34;;;;;;;19.58;10.18;;;;;;;7.54;58.17;99198.63;5022885;27;101152;-86
2024/03/24 00:19:00;;;;;;;21.05;9.70;;;;;;;7.55;57.95;99194.25;5039477;27;100542;-85
2024/03/24 00:21:26;;;;;;;13.85;8.75;;;;;;;7.43;58.06;99175.53;5022803;27;96617;-85
2024/03/24 00:23:52;;;;;;;17.20;8.13;;;;;;;7.49;57.70;99193.56;5057108;27;96730;-85
2024/03/24 00:26:18;;;;;;;17.13;8.75;;;;;;;7.39;57.97;99181.81;5022965;27;101023;-85
2024/03/24 00:28:43;;;;;;;21.88;9.15;;;;;;;7.35;58.07;99176.75;5039480;27;101691;-85
2024/03/24 00:31:09;;;;;;;14.68;6.65;;;;;;;7.43;57.73;99187.75;5057077;27;96573;-85
2024/03/24 00:33:34;;;;;;;12.85;6.85;;;;;;;7.32;58.08;99177.72;5023052;27;96827;-85
2024/03/24 00:36:00;;;;;;;11.82;6.10;;;;;;;7.33;57.54;99184.66;5026939;27;101348;-85
2024/03/24 00:38:26;;;;;;;10.45;5.75;;;;;;;7.38;57.14;99177.47;5026383;27;100978;-85
2024/03/24 00:40:51;;;;;;;12.55;6.18;;;;;;;7.41;57.50;99172.13;5043588;27;96667;-86
2024/03/24 00:43:17;;;;;;;8.10;5.05;;;;;;;7.35;57.62;99179.38;5026537;27;96774;-85
2024/03/24 00:45:42;;;;;;;9.35;5.35;;;;;;;7.40;57.46;99167.00;5025465;27;101675;-86
2024/03/24 00:48:08;;;;;;;12.27;5.35;;;;;;;7.41;57.22;99163.44;5026061;27;101202;-86
2024/03/24 00:50:34;;;;;;;7.10;4.57;;;;;;;7.41;57.08;99153.00;5039680;27;96672;-86
2024/03/24 00:52:59;;;;;;;9.27;5.13;;;;;;;7.37;57.21;99147.06;5022813;27;96794;-85
2024/03/24 00:55:26;;;;;;;9.77;4.38;;;;;;;7.41;57.30;99153.00;5039582;27;98230;-84
2024/03/24 00:57:51;;;;;;;8.73;4.60;;;;;;;7.36;57.34;99158.44;5039329;27;101463;-85
2024/03/24 01:00:18;;;;;;;10.02;4.28;;;;;;;7.26;57.62;99141.41;5023048;27;96576;-85
2024/03/24 01:02:48;;;;;;;9.68;4.25;;;;;;;7.30;57.07;99140.41;5040177;27;96764;-85
2024/03/24 01:05:14;;;;;;;6.85;4.68;;;;;;;7.08;57.12;99101.22;5039084;27;102339;-85
2024/03/24 01:07:39;;;;;;;8.35;3.72;;;;;;;7.30;57.51;99142.13;5039108;27;101129;-85
2024/03/24 01:10:05;;;;;;;8.23;3.85;;;;;;;7.33;56.99;99134.19;5022119;27;96488;-84
2024/03/24 01:12:31;;;;;;;4.60;3.05;;;;;;;7.18;57.16;99119.97;5039256;27;96843;-85
2024/03/24 01:14:56;;;;;;;6.90;3.45;;;;;;;7.32;57.46;99141.16;5022088;27;100948;-85
2024/03/24 01:17:22;;;;;;;7.18;3.72;;;;;;;7.12;57.37;99110.63;5022093;27;101099;-85
2024/03/24 01:19:47;;;;;;;7.18;3.42;;;;;;;7.30;57.14;99139.53;5039202;27;96613;-85
2024/03/24 01:22:13;;;;;;;7.32;4.07;;;;;;;7.28;57.41;99136.16;5039281;27;96789;-86
2024/03/24 01:24:38;;;;;;;10.27;3.75;;;;;;;7.26;57.08;99131.81;5038707;27;101596;-85
2024/03/24 01:27:04;;;;;;;6.82;3.85;;;;;;;7.26;57.19;99125.75;5039097;27;101193;-86
2024/03/24 01:29:30;;;;;;;7.32;4.15;;;;;;;7.15;57.04;99101.84;5039423;27;96523;-85
2024/03/24 01:31:56;;;;;;;9.43;4.32;;;;;;;7.09;57.08;99094.25;5038832;27;96876;-85
2024/03/24 01:34:21;;;;;;;7.05;3.58;;;;;;;7.09;57.03;99095.09;5021453;27;101527;-85
2024/03/24 01:36:50;;;;;;;4.90;3.50;;;;;;;7.31;57.13;99125.59;5038532;27;101344;-85
2024/03/24 01:39:15;;;;;;;10.45;4.13;;;;;;;7.14;56.98;99105.38;5038981;27;96655;-85
2024/03/24 01:41:41;;;;;;;4.80;3.25;;;;;;;7.21;56.81;99131.16;5038962;27;98378;-85
2024/03/24 01:44:06;;;;;;;8.25;4.18;;;;;;;7.21;57.01;99132.91;5055830;27;97919;-86
2024/03/24 01:46:32;;;;;;;6.03;4.00;;;;;;;7.20;56.81;99133.81;5037706;27;96759;-84
2024/03/24 01:48:57;;;;;;;6.68;4.03;;;;;;;7.12;56.71;99122.81;5022021;27;96593;-85
2024/03/24 01:51:23;;;;;;;7.35;4.38;;;;;;;7.14;57.18;99124.47;5038863;27;96766;-86
2024/03/24 01:53:49;;;;;;;9.27;4.25;;;;;;;7.05;57.33;99119.63;5021965;27;102059;-86
2024/03/24 01:56:15;;;;;;;7.18;4.32;;;;;;;7.13;57.27;99132.38;5038559;27;101101;-84
2024/03/24 01:58:41;;;;;;;7.68;4.25;;;;;;;7.10;56.98;99129.84;5021313;27;96492;-85
2024/03/24 02:01:08;;;;;;;10.93;5.32;;;;;;;7.07;57.36;99135.19;5038503;27;96642;-85
2024/03/24 02:03:36;;;;;;;7.78;4.10;;;;;;;7.07;57.06;99119.53;5038380;27;101162;-86
2024/03/24 02:06:02;;;;;;;8.30;4.80;;;;;;;6.99;56.85;99123.31;5038452;27;98244;-85
2024/03/24 02:08:29;;;;;;;8.30;4.13;;;;;;;7.01;57.10;99124.09;5021796;27;96548;-83
2024/03/24 02:10:55;;;;;;;7.45;4.38;;;;;;;7.05;57.35;99129.22;5005310;27;96853;-85
2024/03/24 02:13:21;;;;;;;7.47;4.75;;;;;;;6.98;56.79;99120.75;5038098;27;99927;-84
2024/03/24 02:15:53;;;;;;;5.85;3.97;;;;;;;6.80;57.36;99098.81;5055191;27;101139;-85
2024/03/24 02:18:20;;;;;;;7.97;4.05;;;;;;;6.94;57.19;99113.97;5038470;27;96720;-85
2024/03/24 02:20:45;;;;;;;7.10;3.80;;;;;;;6.99;57.35;99123.31;5055672;27;96839;-85
2024/03/24 02:23:11;;;;;;;9.88;5.43;;;;;;;6.99;57.31;99119.84;5037551;27;100516;-84
2024/03/24 02:25:37;;;;;;;10.38;4.97;;;;;;;6.97;57.12;99121.66;5055124;27;97631;-85
2024/03/24 02:28:02;;;;;;;7.18;4.00;;;;;;;6.80;57.11;99091.84;5038551;27;96487;-84
2024/03/24 02:30:28;;;;;;;11.90;6.03;;;;;;;6.93;57.22;99125.31;5021440;27;96903;-85
2024/03/24 02:32:54;;;;;;;8.13;4.13;;;;;;;6.90;57.45;99115.84;5020717;27;101171;-85
2024/03/24 02:35:20;;;;;;;10.07;4.43;;;;;;;6.78;57.27;99104.13;5037974;27;98323;-85
2024/03/24 02:37:46;;;;;;;8.52;4.22;;;;;;;6.88;57.12;99112.44;5054733;27;96672;-85
2024/03/24 02:40:12;;;;;;;8.55;4.07;;;;;;;6.80;57.45;99104.03;5038718;27;96701;-85
2024/03/24 02:42:38;;;;;;;8.30;4.13;;;;;;;6.79;57.69;99105.81;5037541;27;101238;-85
2024/03/24 02:45:04;;;;;;;5.25;3.42;;;;;;;6.61;57.92;99096.06;5037835;27;97891;-87
2024/03/24 02:47:31;;;;;;;6.28;3.78;;;;;;;6.54;58.22;99100.66;5037280;27;96610;-85
2024/03/24 02:50:00;;;;;;;7.45;4.60;;;;;;;6.65;57.71;99099.41;5037924;27;96836;-85
2024/03/24 02:52:26;;;;;;;6.85;3.80;;;;;;;6.65;57.75;99102.00;5020321;27;101527;-85
2024/03/24 02:54:51;;;;;;;7.22;3.72;;;;;;;6.64;58.21;99108.16;5020605;27;101774;-85
2024/03/24 02:57:17;;;;;;;7.63;3.90;;;;;;;6.65;57.83;99100.25;5020850;27;96557;-85
2024/03/24 02:59:43;;;;;;;6.97;3.92;;;;;;;6.68;57.88;99113.19;5037775;27;96555;-85
2024/03/24 03:02:09;;;;;;;6.07;3.97;;;;;;;6.64;58.08;99118.59;5020445;27;100515;-85
2024/03/24 03:04:34;;;;;;;8.73;3.88;;;;;;;6.46;57.95;99083.63;5037504;27;101408;-86
2024/03/24 03:07:00;;;;;;;6.35;3.55;;;;;;;6.69;57.67;99109.69;5020802;27;96542;-85
2024/03/24 03:09:28;;;;;;;6.78;3.70;;;;;;;6.63;57.57;99111.66;5054764;27;96702;-85
2024/03/24 03:11:53;;;;;;;6.45;3.58;;;;;;;6.59;57.84;99116.13;5036650;27;101434;-86
2024/03/24 03:14:20;;;;;;;7.15;4.00;;;;;;;6.56;58.02;99111.03;5020324;27;101416;-86
2024/03/24 03:16:45;;;;;;;10.07;4.38;;;;;;;6.49;58.09;99106.97;5037485;27;96632;-85
2024/03/24 03:19:11;;;;;;;6.40;4.22;;;;;;;6.37;58.18;99104.78;5020567;27;96615;-86
2024/03/24 03:21:37;;;;;;;7.65;3.95;;;;;;;6.40;57.99;99105.53;5037275;27;100809;-85
2024/03/24 03:24:02;;;;;;;11.30;4.47;;;;;;;6.35;58.43;99113.50;5020353;27;100854;-85
2024/03/24 03:26:28;;;;;;;6.43;4.07;;;;;;;6.32;58.42;99110.16;5037365;27;97106;-85
2024/03/24 03:28:54;;;;;;;9.10;4.18;;;;;;;6.22;58.33;99083.56;5020826;27;96872;-85
2024/03/24 03:31:19;;;;;;;7.00;3.38;;;;;;;6.32;58.32;99103.19;5036863;27;101782;-85
2024/03/24 03:33:45;;;;;;;10.18;4.43;;;;;;;6.32;58.25;99100.59;5020091;27;100341;-85
2024/03/24 03:36:10;;;;;;;5.82;3.75;;;;;;;6.19;58.44;99086.28;5019769;27;96563;-85
2024/03/24 03:38:36;;;;;;;7.78;3.90;;;;;;;6.08;58.81;99084.09;5020556;27;96845;-85
2024/03/24 03:41:02;;;;;;;7.93;3.92;;;;;;;6.13;58.79;99089.97;5036846;27;101485;-85
2024/03/24 03:43:28;;;;;;;9.95;4.65;;;;;;;6.12;59.02;99096.09;5036665;27;101295;-85
2024/03/24 03:45:53;;;;;;;10.25;4.53;;;;;;;6.10;59.05;99095.28;5037351;27;96593;-84
2024/03/24 03:48:19;;;;;;;9.40;4.03;;;;;;;6.15;58.71;99094.28;5036792;27;96822;-85
2024/03/24 03:50:46;;;;;;;9.32;4.35;;;;;;;6.01;58.59;99077.38;5019314;27;101036;-85
2024/03/24 03:53:17;;;;;;;10.27;3.95;;;;;;;6.01;59.23;99087.78;5020112;27;101300;-85
2024/03/24 03:55:47;;;;;;;7.20;4.07;;;;;;;5.98;59.01;99092.25;5021133;27;96782;-85
2024/03/24 03:58:13;;;;;;;8.43;5.88;;;;;;;6.02;59.40;99097.31;5020816;27;96549;-84
2024/03/24 04:00:38;;;;;;;7.70;4.23;;;;;;;5.94;59.28;99099.34;5019302;27;101336;-84
2024/03/24 04:03:04;;;;;;;6.72;4.50;;;;;;;5.92;59.50;99098.50;5036467;27;100521;-86
2024/03/24 04:05:29;;;;;;;7.27;3.67;;;;;;;5.90;59.45;99098.56;5020055;27;96539;-85
2024/03/24 04:07:55;;;;;;;6.50;4.10;;;;;;;5.96;59.60;99100.13;5020153;27;96899;-85
2024/03/24 04:10:20;;;;;;;8.00;4.30;;;;;;;6.03;59.25;99092.97;5038505;27;99586;-85
2024/03/24 04:12:46;;;;;;;7.88;5.00;;;;;;;6.11;59.80;99097.00;5023089;27;100722;-85
2024/03/24 04:15:11;;;;;;;7.30;4.40;;;;;;;5.95;59.48;99048.09;5040238;27;96568;-85
2024/03/24 04:17:37;;;;;;;7.18;4.60;;;;;;;6.23;59.45;99095.72;5057729;27;96577;-85
2024/03/24 04:20:04;;;;;;;8.35;4.57;;;;;;;6.05;59.79;99076.38;5023352;27;101277;-85
2024/03/24 04:22:30;;;;;;;12.43;4.97;;;;;;;6.17;59.63;99082.91;5040120;27;98501;-86
2024/03/24 04:24:55;;;;;;;9.45;4.43;;;;;;;6.29;59.14;99100.69;5039477;27;96579;-85
2024/03/24 04:27:21;;;;;;;10.25;4.80;;;;;;;6.34;58.83;99090.97;5040006;27;96891;-85
2024/03/24 04:29:46;;;;;;;14.27;4.65;;;;;;;6.40;58.39;99095.09;5056873;27;97582;-85
2024/03/24 04:32:12;;;;;;;9.48;4.75;;;;;;;6.40;58.58;99089.91;5039862;27;98408;-85
2024/03/24 04:34:38;;;;;;;11.40;5.07;;;;;;;6.44;58.54;99077.59;5039722;27;96711;-85
2024/03/24 04:37:05;;;;;;;9.73;5.05;;;;;;;6.21;58.08;99042.78;5040547;27;96602;-84
2024/03/24 04:39:32;;;;;;;10.40;4.55;;;;;;;6.41;58.03;99064.69;5039580;27;100860;-85
2024/03/24 04:41:58;;;;;;;10.77;4.50;;;;;;;6.51;58.11;99072.06;5039750;27;101179;-85
2024/03/24 04:44:23;;;;;;;5.90;3.95;;;;;;;6.57;57.96;99071.00;5040413;27;96612;-85
2024/03/24 04:46:49;;;;;;;11.35;3.90;;;;;;;6.65;57.59;99070.72;5022945;27;96740;-85
2024/03/24 04:49:15;;;;;;;7.10;3.97;;;;;;;6.65;57.72;99076.78;5022062;27;100514;-86
2024/03/24 04:51:40;;;;;;;9.82;4.45;;;;;;;6.67;57.59;99061.09;5022229;27;100849;-85
2024/03/24 04:54:06;;;;;;;9.38;3.95;;;;;;;6.67;57.50;99058.47;5022738;27;96655;-88
2024/03/24 04:56:34;;;;;;;9.48;4.32;;;;;;;6.66;57.50;99070.69;5056669;27;96631;-86
2024/03/24 04:59:00;;;;;;;7.63;3.95;;;;;;;6.61;57.27;99063.94;5022752;27;100778;-86
2024/03/24 05:01:25;;;;;;;8.85;4.45;;;;;;;6.56;57.41;99053.66;5022467;27;101484;-85
2024/03/24 05:03:51;;;;;;;11.20;4.75;;;;;;;6.60;58.11;99065.66;5022784;27;96534;-86
2024/03/24 05:06:16;;;;;;;10.70;4.90;;;;;;;6.64;58.07;99061.22;5022937;27;96852;-85
2024/03/24 05:08:42;;;;;;;6.40;4.00;;;;;;;6.76;57.58;99068.56;5022331;27;101228;-84
2024/03/24 05:11:11;;;;;;;12.18;4.40;;;;;;;6.73;57.38;99068.69;5022325;27;100881;-85
2024/03/24 05:13:40;;;;;;;10.60;5.68;;;;;;;6.64;57.41;99077.69;5022741;27;96512;-85
2024/03/24 05:16:08;;;;;;;8.35;4.82;;;;;;;6.60;57.34;99073.50;5039292;27;96787;-85
2024/03/24 05:18:36;;;;;;;11.80;5.63;;;;;;;6.57;56.87;99074.47;5038857;27;101431;-86
2024/03/24 05:21:02;;;;;;;12.32;5.00;;;;;;;6.62;56.93;99078.66;5022214;27;100427;-86
2024/03/24 05:23:28;;;;;;;8.93;4.28;;;;;;;6.44;57.00;99070.63;5039240;27;96552;-85
2024/03/24 05:25:54;;;;;;;6.90;3.80;;;;;;;6.44;56.94;99081.03;5056126;27;96881;-84
2024/03/24 05:28:21;;;;;;;13.18;4.32;;;;;;;6.45;57.67;99077.53;5055887;27;98092;-85
2024/03/24 05:30:47;;;;;;;11.40;4.30;;;;;;;6.40;57.53;99066.44;5057561;27;97823;-85
2024/03/24 05:33:13;;;;;;;8.07;4.38;;;;;;;6.54;57.70;99069.38;5022302;27;96605;-85
2024/03/24 05:35:38;;;;;;;9.52;3.88;;;;;;;6.51;57.40;99085.13;5039349;27;96767;-85
2024/03/24 05:38:04;;;;;;;10.20;4.78;;;;;;;6.61;57.03;99095.22;5038145;27;101183;-85
2024/03/24 05:40:29;;;;;;;9.15;4.30;;;;;;;6.65;56.88;99091.59;5021712;27;100944;-85
2024/03/24 05:42:55;;;;;;;9.07;4.60;;;;;;;6.44;57.37;99091.47;5038870;27;96582;-85
2024/03/24 05:45:21;;;;;;;12.30;5.05;;;;;;;6.26;57.79;99092.16;5038786;27;96565;-86
2024/03/24 05:47:48;;;;;;;12.13;5.07;;;;;;;6.41;57.61;99085.53;5038546;27;101624;-85
2024/03/24 05:50:13;;;;;;;7.43;4.32;;;;;;;6.48;57.07;99090.44;5038084;27;101236;-85
2024/03/24 05:52:41;;;;;;;9.52;4.90;;;;;;;6.66;56.62;99101.97;5038599;27;96544;-86
2024/03/24 05:55:07;;;;;;;7.45;4.35;;;;;;;6.53;56.84;99098.09;5039215;27;96772;-85
2024/03/24 05:57:33;;;;;;;9.73;4.32;;;;;;;6.60;56.93;99096.13;5038656;27;97775;-85
2024/03/24 05:59:59;;;;;;;13.57;4.72;;;;;;;6.63;56.86;99096.00;5038541;27;97880;-84
2024/03/24 06:02:26;;;;;;;8.32;4.53;;;;;;;6.62;56.58;99089.09;5038371;27;96536;-86
2024/03/24 06:04:53;;;;;;;9.88;4.20;;;;;;;6.60;56.37;99081.31;5038795;27;96742;-86
2024/03/24 06:07:19;;;;;;;12.57;4.90;;;;;;;6.73;56.27;99085.16;5021566;27;101905;-85
2024/03/24 06:09:44;;;;;;;15.45;5.28;;;;;;;6.82;56.15;99099.63;5021244;27;100970;-85
2024/03/24 06:12:10;;;;;;;7.25;4.10;;;;;;;6.74;55.91;99081.66;5038782;27;96532;-84
2024/03/24 06:14:35;;;;;;;9.77;4.32;;;;;;;6.86;55.76;99098.59;5039171;27;96799;-85
2024/03/24 06:17:01;;;;;;;7.88;4.60;;;;;;;6.90;55.91;99101.94;5021307;27;100128;-85
2024/03/24 06:19:26;;;;;;;12.35;4.82;;;;;;;6.73;55.92;99061.69;5021874;27;101927;-88
2024/03/24 06:21:53;;;;;;;14.18;5.00;;;;;;;7.08;56.01;99101.22;5021211;27;96524;-85
2024/03/24 06:24:18;;;;;;;7.72;3.92;;;;;;;7.14;55.71;99100.13;5038257;27;97006;-84
2024/03/24 06:26:44;;;;;;;8.68;4.38;;;;;;;7.28;55.74;99103.06;5037550;27;98421;-84
2024/03/24 06:29:10;;;;;;;12.63;4.72;;;;;;;7.34;55.79;99104.56;5037700;27;99383;-84
2024/03/24 06:31:36;;;;;;;8.60;4.00;;;;;;;7.26;55.94;99105.72;5021116;27;96673;-84
2024/03/24 06:34:03;;;;;;;6.28;3.75;;;;;;;7.36;55.97;99108.81;5020824;27;96824;-84
2024/03/24 06:36:30;;;;;;;7.72;3.47;;;;;;;7.35;55.81;99108.88;5037783;27;97951;-85
2024/03/24 06:38:55;;;;;;;5.43;3.67;;;;;;;7.40;55.43;99110.38;5037404;27;101455;-84
2024/03/24 06:41:21;;;;;;;4.95;3.15;;;;;;;7.39;55.39;99111.31;5020915;27;96625;-86
2024/03/24 06:43:47;;;;;;;9.10;4.05;;;;;;;7.46;55.74;99109.28;5038533;27;96761;-85
2024/03/24 06:46:13;;;;;;;6.10;3.88;;;;;;;7.51;55.30;99107.34;5037396;27;100958;-84
2024/03/24 06:48:38;;;;;;;8.90;4.32;;;;;;;7.73;54.69;99107.31;5020549;27;101752;-85
2024/03/24 06:51:04;;;;;;;6.60;3.55;;;;;;;7.85;54.85;99101.59;5036738;27;96552;-83
2024/03/24 06:53:30;;;;;;;6.97;3.72;;;;;;;7.97;54.53;99108.06;5037449;27;96978;-84
2024/03/24 06:55:56;;;;;;;9.32;3.50;;;;;;;8.26;53.95;99117.25;5020566;27;100081;-85
2024/03/24 06:58:21;;;;;;;5.95;3.42;;;;;;;8.22;53.19;99094.75;5020339;27;101755;-85
2024/03/24 07:00:52;;;;;;;8.73;2.75;;;;;;;8.43;53.75;99115.69;5020852;27;96749;-85
2024/03/24 07:03:19;;;;;;;5.27;3.13;;;;;;;8.44;52.97;99113.00;5037644;27;96530;-84
2024/03/24 07:05:44;;;;;;;4.93;2.92;;;;;;;8.51;53.03;99105.72;5020460;27;101423;-85
2024/03/24 07:08:10;;;;;;;6.15;3.17;;;;;;;8.63;52.50;99094.72;5037481;27;100349;-85
2024/03/24 07:10:35;;;;;;;6.50;2.97;;;;;;;8.64;52.95;99106.03;5020543;27;96549;-85
2024/03/24 07:13:01;;;;;;;5.30;2.97;;;;;;;8.44;52.41;99105.16;5020828;27;96556;-84
2024/03/24 07:15:26;;;;;;;4.82;2.80;;;;;;;8.55;52.62;99113.38;5036921;27;97548;-85
2024/03/24 07:17:52;;;;;;;4.30;2.80;;;;;;;8.53;53.16;99109.13;5020113;27;101152;-85
2024/03/24 07:20:18;;;;;;;5.82;3.10;;;;;;;8.50;53.19;99114.50;5037547;27;96587;-85
2024/03/24 07:22:43;;;;;;;6.28;3.00;;;;;;;8.73;52.96;99111.69;5054527;27;96824;-84
2024/03/24 07:25:10;;;;;;;5.03;2.88;;;;;;;8.88;52.28;99106.69;5019978;27;101187;-85
2024/03/24 07:27:35;;;;;;;7.97;3.53;;;;;;;9.42;51.35;99107.59;5036832;27;100237;-85
2024/03/24 07:30:02;;;;;;;8.50;4.00;;;;;;;9.97;49.57;99102.22;5037194;27;96588;-86
2024/03/24 07:32:27;;;;;;;7.32;3.42;;;;;;;10.21;48.81;99092.28;5037619;27;96877;-85
2024/03/24 07:34:53;;;;;;;7.25;3.97;;;;;;;14.29;43.38;99077.41;5020286;27;100112;-85
2024/03/24 07:37:19;;;;;;;6.00;3.63;;;;;;;22.72;29.98;99072.94;5020004;27;99880;-87
2024/03/24 07:39:45;;;;;;;9.63;3.80;;;;;;;25.33;25.75;99036.31;5036537;27;96579;-86
2024/03/24 07:42:10;;;;;;;5.72;2.90;;;;;;;28.83;22.44;99056.13;5036948;27;96929;-86
2024/03/24 07:44:36;;;;;;;6.82;3.25;;;;;;;30.75;19.91;99046.50;5020998;27;101185;-87
2024/03/24 07:47:04;;;;;;;3.35;2.78;;;;;;;31.64;18.98;99053.00;5040243;27;101396;-87
2024/03/24 07:49:34;;;;;;;7.07;3.33;;;;;;;32.79;17.43;99047.19;5041725;27;96846;-86
2024/03/24 07:52:00;;;;;;;5.90;3.42;;;;;;;34.26;16.41;99038.56;5027110;27;96694;-88
2024/03/24 07:54:26;;;;;;;5.88;2.78;;;;;;;35.76;15.23;99042.19;5026469;27;100763;-88
2024/03/24 07:56:52;;;;;;;4.88;2.67;;;;;;;36.38;14.30;99040.41;5027011;27;100061;-89
2024/03/24 07:59:17;;;;;;;3.88;2.40;;;;;;;36.78;14.51;99040.16;5044149;27;96571;-88
2024/03/24 08:01:43;;;;;;;4.80;2.70;;;;;;;37.93;13.49;99041.91;5026902;27;96938;-88
2024/03/24 08:04:09;;;;;;;4.05;2.67;;;;;;;34.20;15.35;99043.06;5043270;27;98487;-88
2024/03/24 08:06:35;;;;;;;3.97;2.38;;;;;;;34.67;14.87;99050.38;5043793;27;97833;-89
2024/03/24 08:09:01;;;;;;;4.03;2.50;;;;;;;30.61;17.67;99054.69;5043967;27;96576;-88
2024/03/24 08:11:27;;;;;;;5.85;2.97;;;;;;;30.39;18.37;99066.81;5043734;27;96799;-88
2024/03/24 08:13:52;;;;;;;3.80;2.28;;;;;;;30.23;17.56;99052.69;5044014;27;97582;-88
2024/03/24 08:16:18;;;;;;;6.57;2.42;;;;;;;23.93;22.72;99060.06;5026531;27;100772;-87
2024/03/24 08:18:43;;;;;;;3.58;2.10;;;;;;;22.48;24.56;99060.28;5027114;27;96599;-87
2024/03/24 08:21:10;;;;;;;5.15;2.40;;;;;;;21.10;26.15;99061.63;5027056;27;96919;-87
2024/03/24 08:23:35;;;;;;;4.82;2.58;;;;;;;19.45;28.36;99067.31;5026330;27;101574;-87
2024/03/24 08:26:01;;;;;;;6.47;2.47;;;;;;;18.09;30.18;99065.03;5026203;27;101102;-86
2024/03/24 08:28:26;;;;;;;4.25;2.35;;;;;;;16.88;31.91;99074.97;5043524;27;96568;-86
2024/03/24 08:30:53;;;;;;;5.68;2.22;;;;;;;15.75;33.05;99060.72;5043346;27;96932;-87
2024/03/24 08:33:18;;;;;;;3.60;2.10;;;;;;;15.74;32.87;99071.44;5042907;27;101323;-86
2024/03/24 08:35:44;;;;;;;5.28;2.13;;;;;;;24.18;24.19;99053.66;5025739;27;100520;-87
2024/03/24 08:38:09;;;;;;;4.18;2.33;;;;;;;32.35;17.04;99035.50;5044110;27;96605;-88
2024/03/24 08:40:35;;;;;;;3.83;2.35;;;;;;;35.65;14.83;99021.25;5043756;27;96748;-87
2024/03/24 08:43:00;;;;;;;6.00;2.42;;;;;;;26.37;20.20;99024.84;5042843;27;98042;-86
2024/03/24 08:45:26;;;;;;;3.75;2.10;;;;;;;30.15;17.42;99020.41;5043166;27;100351;-87
2024/03/24 08:47:51;;;;;;;2.88;1.95;;;;;;;34.18;14.30;99026.16;5026134;27;96515;-87
2024/03/24 08:50:17;;;;;;;5.88;2.53;;;;;;;24.06;21.12;99040.78;5042116;27;96857;-87
2024/03/24 08:52:43;;;;;;;4.40;1.95;;;;;;;20.73;24.82;99046.50;5042010;27;101169;-86
2024/03/24 08:55:08;;;;;;;4.03;2.40;;;;;;;21.18;25.54;99063.53;5025280;27;101348;-87
2024/03/24 08:57:35;;;;;;;3.53;1.90;;;;;;;31.02;17.24;99031.88;5025748;27;96572;-87
2024/03/24 09:00:01;;;;;;;5.20;2.58;;;;;;;33.68;15.47;99036.59;5042462;27;96965;-87
2024/03/24 09:02:27;;;;;;;3.80;2.20;;;;;;;38.35;12.34;99021.97;5025187;27;101423;-88
2024/03/24 09:04:55;;;;;;;2.95;1.92;;;;;;;40.27;10.83;99017.19;5025234;27;100327;-88
2024/03/24 09:07:21;;;;;;;2.90;1.98;;;;;;;41.81;10.45;99017.22;5026095;27;96681;-88
2024/03/24 09:09:47;;;;;;;1.75;1.52;;;;;;;44.10;9.33;98999.84;5043120;27;96899;-89
2024/03/24 09:12:13;;;;;;;2.28;1.48;;;;;;;36.60;12.36;99021.34;5025063;27;101337;-88
2024/03/24 09:14:39;;;;;;;5.82;1.60;;;;;;;28.33;17.00;99037.31;5025104;27;101353;-88
2024/03/24 09:17:04;;;;;;;2.05;1.33;;;;;;;24.35;19.80;99043.75;5042019;27;96587;-87
2024/03/24 09:19:30;;;;;;;1.90;1.35;;;;;;;22.25;22.33;99046.63;5025222;27;96900;-87
2024/03/24 09:21:56;;;;;;;2.75;1.30;;;;;;;21.61;22.84;99049.50;5058845;27;98511;-86
2024/03/24 09:24:22;;;;;;;5.68;2.03;;;;;;;22.41;21.89;99038.72;5041853;27;97746;-87
2024/03/24 09:26:49;;;;;;;2.97;1.38;;;;;;;20.08;24.38;99048.25;5025406;27;96637;-88
2024/03/24 09:29:14;;;;;;;17.10;9.57;;;;;;;19.47;25.46;99045.91;5042845;27;96749;-87
2024/03/24 09:31:40;;;;;;;5.00;3.78;;;;;;;20.38;24.53;99043.69;5024857;27;102014;-88
2024/03/24 09:34:06;;;;;;;3.17;1.50;;;;;;;18.64;25.98;99039.97;5041998;27;100263;-87
2024/03/24 09:36:31;;;;;;;4.82;1.70;;;;;;;25.69;20.02;99025.81;5042245;27;96600;-88
2024/03/24 09:38:57;;;;;;;2.22;1.55;;;;;;;32.17;14.90;99012.75;5042240;27;96789;-88
2024/03/24 09:41:26;;;;;;;4.28;1.90;;;;;;;29.20;17.11;99016.97;5041264;27;97865;-88
2024/03/24 09:43:52;;;;;;;3.25;1.52;;;;;;;30.67;16.07;99009.69;5024640;27;101154;-88
2024/03/24 09:46:18;;;;;;;4.22;1.98;;;;;;;31.63;15.60;98981.66;5024842;27;96622;-87
2024/03/24 09:48:44;;;;;;;1.75;1.25;;;;;;;31.66;15.20;99004.81;5041291;27;96940;-87
2024/03/24 09:51:10;;;;;;;2.90;1.45;;;;;;;25.05;19.85;99013.47;5040889;27;101154;-87
2024/03/24 09:53:37;;;;;;;3.85;1.80;;;;;;;23.40;20.91;99005.94;5024400;27;101091;-87
2024/03/24 09:56:06;;;;;;;4.15;1.63;;;;;;;31.10;15.57;99001.00;5041940;27;96653;-87
2024/03/24 09:58:32;;;;;;;3.33;1.80;;;;;;;35.91;13.07;98989.72;5025130;27;96808;-89
2024/03/24 10:00:58;;;;;;;3.55;1.85;;;;;;;37.63;12.32;98972.16;5041498;27;100223;-88
2024/03/24 10:03:24;;;;;;;2.58;1.50;;;;;;;36.67;12.18;98981.81;5024161;27;101570;-88
2024/03/24 10:05:50;;;;;;;2.35;1.55;;;;;;;35.07;12.99;98974.09;5041303;27;96703;-86
2024/03/24 10:08:15;;;;;;;3.45;1.92;;;;;;;28.74;16.43;98968.19;5040300;27;96790;-87
2024/03/24 10:10:41;;;;;;;3.17;1.77;;;;;;;29.42;17.03;98969.03;5040850;27;101028;-87
2024/03/24 10:13:08;;;;;;;3.22;1.73;;;;;;;27.29;17.28;98970.50;5024399;27;101011;-88
2024/03/24 10:15:33;;;;;;;3.92;1.50;;;;;;;25.06;19.58;98966.81;5041304;27;96627;-87
2024/03/24 10:18:06;;;;;;;3.00;1.30;;;;;;;24.42;20.03;98976.03;5024551;27;96837;-87
2024/03/24 10:20:33;;;;;;;3.97;1.45;;;;;;;22.65;21.52;98963.09;5041157;27;98277;-87
2024/03/24 10:22:59;;;;;;;3.50;1.60;;;;;;;22.17;22.23;98972.59;5024662;27;100738;-88
2024/03/24 10:25:29;;;;;;;2.83;1.40;;;;;;;21.68;22.84;98966.94;5025092;27;96623;-84
2024/03/24 10:27:56;;;;;;;7.47;2.15;;;;;;;20.99;23.56;98953.28;5041149;27;96838;-79
2024/03/24 10:30:22;;;;;;;3.88;1.98;;;;;;;20.20;24.41;98961.03;5039913;27;101433;-84
2024/03/24 10:32:47;;;;;;;4.70;2.05;;;;;;;19.28;25.15;98956.28;5023608;27;101632;-86
2024/03/24 10:35:16;;;;;;;3.35;1.77;;;;;;;18.18;25.87;98961.63;5040810;27;96624;-83
2024/03/24 10:37:42;;;;;;;2.97;1.20;;;;;;;18.03;25.73;98961.13;5041226;27;96865;-83
2024/03/24 10:40:15;;;;;;;4.13;1.63;;;;;;;17.17;26.93;98963.91;5040381;27;100938;-83
2024/03/24 10:42:53;;;;;;;4.10;1.73;;;;;;;16.63;28.97;98967.41;5058593;27;98484;-85
2024/03/24 10:45:24;;;;;;;3.40;3.10;;;;;;;16.54;29.15;98965.50;5041889;27;96582;-83
2024/03/24 10:48:01;;;;;;;4.88;1.65;;;;;;;15.94;30.12;98969.34;5042413;27;96637;-85
2024/03/24 10:50:27;;;;;;;3.22;1.70;;;;;;;15.83;30.17;98943.75;5040043;27;97956;-84
2024/03/24 10:52:56;;;;;;;4.85;1.73;;;;;;;15.81;30.33;98964.19;5057478;27;97950;-85
2024/03/24 10:55:23;;;;;;;3.65;1.70;;;;;;;16.30;30.13;98960.34;5040476;27;96713;-82
2024/03/24 10:57:49;;;;;;;3.58;2.20;;;;;;;15.87;30.36;98955.75;5023919;27;96848;-84
2024/03/24 11:00:15;;;;;;;2.67;1.45;;;;;;;15.83;30.60;98959.63;5040738;27;97502;-82
2024/03/24 11:02:42;;;;;;;3.45;1.95;;;;;;;15.51;30.59;98957.59;5040185;27;97613;-83
2024/03/24 11:05:08;;;;;;;3.63;2.05;;;;;;;15.62;30.92;98956.78;5040249;27;96574;-83
2024/03/24 11:07:37;;;;;;;3.13;1.80;;;;;;;15.05;31.52;98942.53;5023495;27;96864;-84
2024/03/24 11:10:04;;;;;;;3.15;1.80;;;;;;;14.61;32.48;98959.84;5040145;27;101135;-83
2024/03/24 11:12:30;;;;;;;5.05;2.70;;;;;;;14.50;32.58;98951.81;5057239;27;97457;-82
2024/03/24 11:14:55;;;;;;;3.95;1.92;;;;;;;14.40;32.16;98953.44;5057473;27;96587;-83
2024/03/24 11:17:21;;;;;;;3.25;1.90;;;;;;;14.66;32.39;98944.53;5023461;27;96975;-84
2024/03/24 11:19:49;;;;;;;3.42;1.88;;;;;;;14.77;32.26;98927.88;5039463;27;97601;-83
2024/03/24 11:22:15;;;;;;;4.35;1.98;;;;;;;15.15;31.78;98935.63;5039878;27;97938;-82
2024/03/24 11:24:41;;;;;;;2.28;1.83;;;;;;;15.21;31.21;98933.47;5056998;27;96621;-88
2024/03/24 11:27:10;;;;;;;3.25;1.60;;;;;;;15.70;30.50;98920.03;5039841;27;96903;-86
2024/03/24 11:29:45;;;;;;;5.90;1.80;;;;;;;15.79;31.18;98935.19;5057569;27;97456;-83